Time;durP1;ratioP1;P1;durP2;ratioP2;P2;SDS_P1;SDS_P2;PMS_P1;PMS_P2;Temp;Humidity;BMP_temperature;BMP_pressure;BME280_temperature;BME280_humidity;BME280_pressure;Samples;Min_cycle;Max_cycle;Signal;HPM_P1;HPM_P2
2022/11/04 00:01:40;;;;;;;30.90;14.90;;;13.80;79.70;;;;;;6123738;23;20170;-79
2022/11/04 00:04:09;;;;;;;28.03;12.80;;;13.80;79.80;;;;;;6124134;23;20165;-79
2022/11/04 00:06:39;;;;;;;26.17;12.37;;;13.80;79.80;;;;;;6124160;23;20173;-79
2022/11/04 00:09:11;;;;;;;28.67;12.03;;;13.70;79.90;;;;;;6123639;23;20534;-78
2022/11/04 00:14:25;;;;;;;26.50;11.43;;;13.70;79.80;;;;;;6123237;23;20164;-79
2022/11/04 00:30:48;;;;;;;32.97;12.77;;;13.60;80.40;;;;;;6121259;23;20196;-79
2022/11/04 00:33:24;;;;;;;24.50;11.03;;;13.60;80.20;;;;;;6122865;23;20181;-79
2022/11/04 00:35:55;;;;;;;26.60;12.67;;;13.60;80.20;;;;;;6124379;23;20193;-78
2022/11/04 00:38:25;;;;;;;22.97;11.33;;;13.60;80.20;;;;;;6120575;23;20162;-79
2022/11/04 00:40:53;;;;;;;23.17;10.87;;;13.60;80.30;;;;;;6120972;23;20224;-81
2022/11/04 00:43:22;;;;;;;21.00;12.17;;;13.60;80.70;;;;;;6122085;23;20213;-79
2022/11/04 00:45:50;;;;;;;22.47;11.83;;;13.70;80.70;;;;;;6123820;23;20523;-78
2022/11/04 00:48:18;;;;;;;22.00;12.03;;;13.70;80.80;;;;;;6123636;23;20701;-79
2022/11/04 00:50:46;;;;;;;24.47;12.13;;;13.70;80.70;;;;;;6122289;23;20197;-79
2022/11/04 00:53:15;;;;;;;22.43;12.17;;;13.70;80.70;;;;;;6121098;23;20504;-78
2022/11/04 00:55:44;;;;;;;27.73;13.07;;;13.70;81.00;;;;;;6123779;23;20231;-79
2022/11/04 00:58:13;;;;;;;24.20;13.23;;;13.70;81.60;;;;;;6122768;23;20169;-78
2022/11/04 01:00:41;;;;;;;27.93;12.70;;;13.70;81.60;;;;;;6122255;23;20174;-79
2022/11/04 01:03:09;;;;;;;23.47;12.77;;;13.70;81.60;;;;;;6120954;23;20235;-79
2022/11/04 01:05:38;;;;;;;26.50;12.50;;;13.70;81.70;;;;;;6124467;23;20883;-79
2022/11/04 01:08:06;;;;;;;25.97;11.70;;;13.70;81.70;;;;;;6121553;23;20181;-79
2022/11/04 01:10:43;;;;;;;25.30;12.80;;;13.70;81.90;;;;;;6124675;23;20201;-78
2022/11/04 01:13:13;;;;;;;26.33;12.03;;;13.70;81.80;;;;;;6120960;23;20510;-78
2022/11/04 01:15:41;;;;;;;29.30;13.70;;;13.70;81.70;;;;;;6123508;23;20228;-78
2022/11/04 01:18:10;;;;;;;26.03;12.60;;;13.70;81.60;;;;;;6121835;23;20182;-78
2022/11/04 01:20:38;;;;;;;28.87;12.80;;;13.70;81.80;;;;;;6120581;23;20640;-78
2022/11/04 01:23:06;;;;;;;26.93;12.37;;;13.70;82.10;;;;;;6123405;23;20502;-79
2022/11/04 01:25:39;;;;;;;28.00;13.17;;;13.70;82.00;;;;;;6122672;23;20177;-78
2022/11/04 01:28:07;;;;;;;27.30;12.73;;;13.70;82.10;;;;;;6123262;23;20624;-78
2022/11/04 01:30:38;;;;;;;28.60;12.30;;;13.70;82.00;;;;;;6119199;23;20197;-79
2022/11/04 01:33:06;;;;;;;26.30;11.83;;;13.70;82.20;;;;;;6122051;23;20243;-78
2022/11/04 01:35:35;;;;;;;29.83;12.33;;;13.70;82.50;;;;;;6123464;23;20232;-79
2022/11/04 01:38:03;;;;;;;27.33;12.47;;;13.60;82.50;;;;;;6124203;23;20232;-78
2022/11/04 01:40:40;;;;;;;25.17;12.43;;;13.60;82.30;;;;;;6122406;23;20177;-79
2022/11/04 01:43:14;;;;;;;25.73;12.60;;;13.60;82.40;;;;;;6120311;23;20243;-78
2022/11/04 01:45:47;;;;;;;22.83;12.80;;;13.60;82.40;;;;;;6120072;23;20487;-79
2022/11/04 01:48:21;;;;;;;23.43;12.03;;;13.50;82.50;;;;;;6124914;23;20221;-77
2022/11/04 01:50:52;;;;;;;30.47;12.90;;;13.50;82.30;;;;;;6122304;23;20189;-78
2022/11/04 01:53:26;;;;;;;27.40;12.17;;;13.50;82.20;;;;;;6122931;23;20176;-79
2022/11/04 01:55:57;;;;;;;29.00;12.53;;;13.50;82.30;;;;;;6121669;23;20271;-78
2022/11/04 01:58:29;;;;;;;26.47;12.00;;;13.50;82.80;;;;;;6122883;23;20220;-78
2022/11/04 02:00:59;;;;;;;25.63;12.43;;;13.50;82.70;;;;;;6119922;23;20539;-79
2022/11/04 02:03:32;;;;;;;23.67;12.23;;;13.50;82.70;;;;;;6124228;23;20161;-78
2022/11/04 02:06:02;;;;;;;27.10;12.47;;;13.50;82.70;;;;;;6123012;23;20224;-78
2022/11/04 02:08:31;;;;;;;31.53;13.47;;;13.50;82.50;;;;;;6125151;23;20172;-79
2022/11/04 02:11:01;;;;;;;21.33;11.57;;;13.60;82.50;;;;;;6121284;23;20271;-78
2022/11/04 02:13:31;;;;;;;25.50;12.13;;;13.50;82.70;;;;;;6118960;23;20356;-79
2022/11/04 02:16:10;;;;;;;26.10;12.13;;;13.50;82.60;;;;;;6119270;23;20192;-81
2022/11/04 02:18:56;;;;;;;27.63;12.27;;;13.50;82.70;;;;;;6122713;23;20161;-79
2022/11/04 02:22:03;;;;;;;26.67;11.90;;;13.50;83.00;;;;;;6120177;23;20615;-79
2022/11/04 02:24:47;;;;;;;28.13;12.37;;;13.50;83.10;;;;;;6039693;23;20240;-78
2022/11/04 02:27:38;;;;;;;30.63;12.83;;;13.50;83.30;;;;;;6120898;23;20488;-78
2022/11/04 02:30:11;;;;;;;27.80;12.40;;;13.50;83.30;;;;;;6121634;23;20542;-79
2022/11/04 02:33:06;;;;;;;25.00;12.27;;;13.50;83.30;;;;;;6120762;23;20280;-79
2022/11/04 02:35:43;;;;;;;24.60;11.73;;;13.50;83.50;;;;;;6120745;23;20165;-79
2022/11/04 02:38:21;;;;;;;27.67;11.87;;;13.50;83.30;;;;;;6123641;23;20224;-79
2022/11/04 02:41:00;;;;;;;23.13;11.77;;;13.50;83.50;;;;;;6119142;23;20165;-80
2022/11/04 02:43:38;;;;;;;24.77;11.87;;;13.50;83.60;;;;;;6120773;23;20220;-79
2022/11/04 02:46:16;;;;;;;26.50;11.67;;;13.50;83.50;;;;;;6122509;23;20211;-79
2022/11/04 02:48:49;;;;;;;26.93;11.93;;;13.50;83.50;;;;;;6122683;23;20674;-79
2022/11/04 02:51:21;;;;;;;24.23;12.37;;;13.50;83.30;;;;;;6119886;23;20193;-79
2022/11/04 02:53:58;;;;;;;24.53;11.27;;;13.50;83.00;;;;;;6123254;23;20221;-79
2022/11/04 02:56:28;;;;;;;26.23;11.77;;;13.50;83.00;;;;;;6122534;23;20216;-79
2022/11/04 02:59:00;;;;;;;23.67;11.20;;;13.50;82.80;;;;;;6122109;23;20165;-79
2022/11/04 03:01:36;;;;;;;26.10;12.03;;;13.50;82.60;;;;;;6120616;23;20161;-79
2022/11/04 03:04:10;;;;;;;23.93;11.43;;;13.60;82.60;;;;;;6120482;23;20168;-79
2022/11/04 03:06:39;;;;;;;23.67;11.63;;;13.50;82.70;;;;;;6123072;23;20219;-79
2022/11/04 03:09:10;;;;;;;25.67;12.00;;;13.50;82.60;;;;;;6122525;23;20567;-79
2022/11/04 03:11:43;;;;;;;23.47;11.80;;;13.50;82.70;;;;;;6122103;23;20268;-79
2022/11/04 03:14:15;;;;;;;25.80;11.83;;;13.50;82.60;;;;;;6121408;23;20166;-79
2022/11/04 03:16:49;;;;;;;25.97;11.60;;;13.60;82.90;;;;;;6121898;23;20213;-79
2022/11/04 03:19:26;;;;;;;24.90;12.40;;;13.50;83.20;;;;;;6120551;23;20544;-77
2022/11/04 03:21:59;;;;;;;23.57;11.73;;;13.50;83.50;;;;;;6122801;23;20193;-79
2022/11/04 03:24:28;;;;;;;24.33;11.27;;;13.50;83.60;;;;;;6120508;23;20204;-78
2022/11/04 03:27:00;;;;;;;21.47;11.53;;;13.50;83.90;;;;;;6122336;23;20232;-79
2022/11/04 03:29:33;;;;;;;23.23;12.03;;;13.50;83.80;;;;;;6121273;23;20169;-78
2022/11/04 03:32:08;;;;;;;32.03;13.03;;;13.50;84.10;;;;;;6125386;23;20185;-81
2022/11/04 03:34:38;;;;;;;25.73;13.07;;;13.50;83.90;;;;;;6123878;23;20165;-79
2022/11/04 03:37:06;;;;;;;23.97;12.27;;;13.50;84.10;;;;;;6120227;23;20236;-79
2022/11/04 03:39:34;;;;;;;24.90;11.97;;;13.50;84.00;;;;;;6123532;23;20181;-79
2022/11/04 03:42:18;;;;;;;24.13;12.20;;;13.50;83.80;;;;;;6124430;23;20201;-78
2022/11/04 03:44:49;;;;;;;26.37;11.70;;;13.60;83.70;;;;;;6124235;23;20627;-79
2022/11/04 03:47:21;;;;;;;28.23;11.60;;;13.50;83.50;;;;;;6122147;23;20500;-79
2022/11/04 03:49:52;;;;;;;24.33;11.90;;;13.60;83.80;;;;;;6123563;23;20635;-78
2022/11/04 03:52:21;;;;;;;28.20;12.70;;;13.60;83.70;;;;;;6123592;23;20513;-79
2022/11/04 03:54:49;;;;;;;23.33;12.37;;;13.60;83.80;;;;;;6123248;23;20177;-77
2022/11/04 03:57:30;;;;;;;22.23;11.77;;;13.60;83.90;;;;;;6124222;23;20177;-78
2022/11/04 04:00:09;;;;;;;26.20;12.27;;;13.60;84.00;;;;;;6122804;23;20177;-79
2022/11/04 04:02:59;;;;;;;28.23;12.37;;;13.60;84.00;;;;;;6123778;23;20228;-78
2022/11/04 04:05:30;;;;;;;24.17;12.10;;;13.60;83.90;;;;;;6048567;23;20232;-79
2022/11/04 04:08:10;;;;;;;23.07;11.77;;;13.60;83.70;;;;;;6125898;23;20209;-79
2022/11/04 04:10:43;;;;;;;21.83;11.90;;;13.60;83.70;;;;;;6124317;23;20606;-78
2022/11/04 04:13:25;;;;;;;25.23;12.33;;;13.60;83.60;;;;;;6121752;23;20217;-78
2022/11/04 04:15:59;;;;;;;25.47;12.73;;;13.60;83.50;;;;;;6071774;23;20185;-78
2022/11/04 04:18:35;;;;;;;31.50;13.53;;;13.60;83.30;;;;;;6125125;23;20216;-78
2022/11/04 04:21:07;;;;;;;25.90;12.50;;;13.60;83.20;;;;;;6123371;23;20165;-78
2022/11/04 04:29:11;;;;;;;28.37;13.77;;;13.60;82.70;;;;;;6121179;23;20725;-79
2022/11/04 04:31:49;;;;;;;28.27;13.37;;;13.60;82.70;;;;;;6119611;23;20181;-77
2022/11/04 04:34:21;;;;;;;21.70;11.57;;;13.60;82.60;;;;;;6122610;23;20169;-79
2022/11/04 04:36:58;;;;;;;32.93;13.77;;;13.60;82.50;;;;;;6123472;23;20158;-79
2022/11/04 04:45:08;;;;;;;25.33;12.33;;;13.40;82.70;;;;;;6120352;23;20498;-80
2022/11/04 04:47:42;;;;;;;27.80;13.37;;;13.40;83.40;;;;;;6122376;23;20674;-78
2022/11/04 04:50:21;;;;;;;27.40;12.17;;;13.30;82.70;;;;;;6123815;23;20223;-79
2022/11/04 04:52:51;;;;;;;23.30;11.67;;;13.30;82.70;;;;;;6123317;23;20248;-79
2022/11/04 04:55:20;;;;;;;27.17;12.80;;;13.30;82.70;;;;;;6122523;23;20162;-79
2022/11/04 04:57:48;;;;;;;24.73;12.40;;;13.30;82.70;;;;;;6121616;23;20232;-79
2022/11/04 05:00:18;;;;;;;24.63;12.43;;;13.30;82.60;;;;;;6121635;23;20496;-78
2022/11/04 05:02:48;;;;;;;29.37;13.10;;;13.30;82.70;;;;;;6123027;23;20177;-78
2022/11/04 05:05:18;;;;;;;27.13;13.43;;;13.30;82.70;;;;;;6123222;23;20512;-78
2022/11/04 05:07:47;;;;;;;25.33;12.37;;;13.20;82.90;;;;;;6121823;23;20208;-78
2022/11/04 05:10:17;;;;;;;22.33;12.73;;;13.20;83.00;;;;;;6124171;23;20615;-79
2022/11/04 05:15:32;;;;;;;27.87;13.43;;;13.20;83.10;;;;;;6121332;23;20165;-79
2022/11/04 05:18:02;;;;;;;25.40;13.53;;;13.20;83.10;;;;;;6123136;23;20177;-78
2022/11/04 05:20:33;;;;;;;29.60;13.33;;;13.20;83.10;;;;;;6121025;23;20173;-79
2022/11/04 05:23:01;;;;;;;23.80;11.97;;;13.20;83.10;;;;;;6121411;23;20173;-78
2022/11/04 05:25:29;;;;;;;26.63;13.10;;;13.20;83.00;;;;;;6123554;23;20177;-79
2022/11/04 05:28:00;;;;;;;27.47;13.37;;;13.20;83.10;;;;;;6121547;23;20197;-79
2022/11/04 05:30:29;;;;;;;24.33;12.07;;;13.20;83.40;;;;;;6122273;23;20168;-79
2022/11/04 05:32:57;;;;;;;25.63;11.87;;;13.20;83.30;;;;;;6123025;23;20204;-79
2022/11/04 05:35:33;;;;;;;28.53;13.00;;;13.20;83.30;;;;;;6123328;23;20165;-78
2022/11/04 05:38:02;;;;;;;26.10;13.00;;;13.20;84.40;;;;;;6121993;23;20162;-79
2022/11/04 05:40:30;;;;;;;29.73;14.23;;;13.20;83.70;;;;;;6125053;23;20173;-79
2022/11/04 05:43:01;;;;;;;26.27;12.57;;;13.20;83.80;;;;;;6121839;23;20177;-79
2022/11/04 05:45:30;;;;;;;27.73;13.40;;;13.20;83.90;;;;;;6119925;23;20157;-80
2022/11/04 05:47:59;;;;;;;23.97;12.57;;;13.20;84.10;;;;;;6124283;23;20208;-79
2022/11/04 05:50:28;;;;;;;29.03;13.80;;;13.20;84.10;;;;;;6122160;23;20169;-79
2022/11/04 05:52:59;;;;;;;28.60;12.87;;;13.30;84.10;;;;;;6119301;23;20201;-79
2022/11/04 05:55:28;;;;;;;22.13;12.63;;;13.30;84.40;;;;;;6121785;23;20166;-78
2022/11/04 05:57:58;;;;;;;31.30;13.27;;;13.30;84.30;;;;;;6122838;23;20173;-79
2022/11/04 06:00:27;;;;;;;36.27;13.57;;;13.30;84.60;;;;;;6122388;23;20543;-79
2022/11/04 06:02:57;;;;;;;27.40;13.87;;;13.30;84.80;;;;;;6119526;23;20552;-80
2022/11/04 06:05:26;;;;;;;30.07;13.40;;;13.40;84.70;;;;;;6122822;23;20197;-78
2022/11/04 06:07:55;;;;;;;25.77;13.77;;;13.40;84.60;;;;;;6122518;23;20182;-79
2022/11/04 06:10:25;;;;;;;26.70;12.43;;;13.40;84.50;;;;;;6123058;23;20236;-79
2022/11/04 06:12:56;;;;;;;22.40;11.63;;;13.40;85.00;;;;;;6120099;23;20232;-78
2022/11/04 06:15:24;;;;;;;24.83;12.97;;;13.50;84.80;;;;;;6118551;23;20199;-77
2022/11/04 06:17:53;;;;;;;28.63;12.90;;;13.60;84.80;;;;;;6119462;23;20694;-79
2022/11/04 06:20:21;;;;;;;22.90;12.73;;;13.60;85.00;;;;;;6122334;23;20204;-76
2022/11/04 06:22:49;;;;;;;25.93;12.57;;;13.60;85.10;;;;;;6124443;23;20177;-77
2022/11/04 06:25:18;;;;;;;24.90;12.87;;;13.60;84.80;;;;;;6123773;23;20200;-78
2022/11/04 06:27:48;;;;;;;22.27;13.27;;;13.70;85.00;;;;;;6123211;23;20220;-78
2022/11/04 06:30:17;;;;;;;26.20;12.57;;;13.70;84.80;;;;;;6123695;23;20169;-77
2022/11/04 06:32:45;;;;;;;27.77;13.87;;;13.70;84.90;;;;;;6121669;23;20251;-78
2022/11/04 06:35:13;;;;;;;31.90;13.77;;;13.80;84.80;;;;;;6124365;23;20174;-77
2022/11/04 06:37:43;;;;;;;28.77;13.63;;;13.90;84.70;;;;;;6118318;23;20188;-76
2022/11/04 06:40:12;;;;;;;27.93;12.97;;;13.90;84.50;;;;;;6122685;23;20631;-78
2022/11/04 06:42:41;;;;;;;30.87;13.30;;;13.90;84.40;;;;;;6122466;23;20701;-78
2022/11/04 06:45:11;;;;;;;27.30;13.73;;;14.00;84.40;;;;;;6123984;23;20173;-77
2022/11/04 06:47:40;;;;;;;28.73;13.98;;;14.10;84.20;;;;;;6121500;23;20351;-78
2022/11/04 06:50:09;;;;;;;28.93;13.27;;;14.10;84.10;;;;;;6124579;23;20220;-78
2022/11/04 06:52:38;;;;;;;28.80;12.27;;;14.20;84.10;;;;;;6123592;23;20177;-77
2022/11/04 06:55:10;;;;;;;25.47;12.40;;;14.30;84.10;;;;;;6120395;23;20741;-78
2022/11/04 06:57:40;;;;;;;25.97;13.00;;;14.30;84.10;;;;;;6120017;23;20170;-78
2022/11/04 07:00:12;;;;;;;24.87;12.37;;;14.40;84.00;;;;;;6120209;23;20367;-78
2022/11/04 07:02:40;;;;;;;25.10;11.70;;;14.50;84.00;;;;;;6124297;23;20220;-78
2022/11/04 07:05:09;;;;;;;23.47;12.53;;;14.60;83.80;;;;;;6126114;23;20169;-78
2022/11/04 07:07:37;;;;;;;24.80;12.30;;;14.60;83.40;;;;;;6126405;23;20177;-78
2022/11/04 07:10:06;;;;;;;25.70;11.93;;;14.70;83.30;;;;;;6125695;23;20177;-79
2022/11/04 07:12:35;;;;;;;23.97;11.77;;;14.70;83.00;;;;;;6126299;23;20659;-78
2022/11/04 07:15:04;;;;;;;29.60;12.93;;;14.80;83.00;;;;;;6123260;23;20729;-79
2022/11/04 07:17:33;;;;;;;22.23;11.87;;;14.90;83.00;;;;;;6125355;23;20176;-78
2022/11/04 07:20:02;;;;;;;23.27;13.10;;;14.90;82.90;;;;;;6125209;23;20174;-79
2022/11/04 07:22:32;;;;;;;29.00;12.93;;;14.90;82.50;;;;;;6125976;23;20551;-78
2022/11/04 07:25:01;;;;;;;24.43;12.23;;;15.00;82.40;;;;;;6124434;23;20616;-78
2022/11/04 07:27:29;;;;;;;24.77;13.30;;;15.10;82.40;;;;;;6123999;23;20260;-79
2022/11/04 07:29:57;;;;;;;25.27;12.63;;;15.10;82.20;;;;;;6124401;23;20177;-79
2022/11/04 07:32:26;;;;;;;23.70;12.03;;;15.20;81.90;;;;;;6125391;23;20259;-78
2022/11/04 07:34:55;;;;;;;27.10;13.03;;;15.30;81.80;;;;;;6124360;23;20205;-79
2022/11/04 07:37:23;;;;;;;27.90;12.63;;;15.40;81.70;;;;;;6126095;23;20177;-80
2022/11/04 07:39:52;;;;;;;23.33;13.30;;;15.40;81.10;;;;;;6126075;23;20169;-80
2022/11/04 07:42:20;;;;;;;20.90;11.83;;;15.50;81.10;;;;;;6126488;23;20177;-79
2022/11/04 07:44:48;;;;;;;26.67;12.13;;;15.50;81.00;;;;;;6124989;23;20247;-80
2022/11/04 07:47:17;;;;;;;22.93;12.10;;;15.60;80.70;;;;;;6125430;23;20173;-78
2022/11/04 07:49:46;;;;;;;28.23;13.20;;;15.60;80.20;;;;;;6124631;23;20169;-79
2022/11/04 07:52:16;;;;;;;23.20;12.87;;;15.60;80.20;;;;;;6124187;23;20184;-79
2022/11/04 07:54:44;;;;;;;26.20;12.20;;;15.70;80.30;;;;;;6123512;23;20666;-79
2022/11/04 07:57:12;;;;;;;26.90;13.13;;;15.70;80.20;;;;;;6126581;23;20169;-79
2022/11/04 07:59:40;;;;;;;24.97;12.80;;;15.80;79.80;;;;;;6123184;23;20240;-79
2022/11/04 08:02:09;;;;;;;21.53;12.30;;;15.80;79.60;;;;;;6125591;23;20655;-77
2022/11/04 08:04:38;;;;;;;27.80;13.00;;;15.90;79.70;;;;;;6125307;23;20169;-78
2022/11/04 08:07:08;;;;;;;26.43;12.77;;;15.90;79.50;;;;;;6126882;23;20177;-78
2022/11/04 08:09:38;;;;;;;24.53;11.90;;;15.90;79.10;;;;;;6125107;23;20161;-78
2022/11/04 08:12:07;;;;;;;26.50;12.40;;;16.00;78.80;;;;;;6125420;23;20248;-76
2022/11/04 08:14:36;;;;;;;25.10;12.07;;;16.00;78.60;;;;;;6126524;23;20678;-78
2022/11/04 08:17:05;;;;;;;25.53;12.43;;;16.10;78.80;;;;;;6125769;23;20192;-76
2022/11/04 08:19:33;;;;;;;21.97;12.27;;;16.10;78.00;;;;;;6125219;23;20627;-75
2022/11/04 08:22:01;;;;;;;28.03;12.77;;;16.20;78.50;;;;;;6126069;23;20569;-79
2022/11/04 08:24:30;;;;;;;25.90;12.93;;;16.30;78.50;;;;;;6125777;23;20173;-77
2022/11/04 08:26:59;;;;;;;31.40;11.90;;;16.30;78.10;;;;;;6125397;23;20173;-77
2022/11/04 08:29:28;;;;;;;24.20;11.83;;;16.40;78.10;;;;;;6124555;23;20778;-80
2022/11/04 08:31:56;;;;;;;25.03;11.27;;;16.40;78.00;;;;;;6126357;23;20176;-77
2022/11/04 08:34:25;;;;;;;27.13;12.37;;;16.50;78.10;;;;;;6125276;23;20573;-78
2022/11/04 08:36:56;;;;;;;24.93;11.70;;;16.60;77.70;;;;;;6124400;23;20551;-77
2022/11/04 08:39:24;;;;;;;18.70;10.80;;;16.70;77.60;;;;;;6123246;23;20158;-78
2022/11/04 08:41:53;;;;;;;25.00;11.87;;;16.70;76.80;;;;;;6125602;23;20180;-78
2022/11/04 08:44:23;;;;;;;23.80;11.73;;;16.80;77.00;;;;;;6125986;23;20169;-79
2022/11/04 08:46:51;;;;;;;21.50;11.07;;;16.90;76.60;;;;;;6126241;23;20233;-78
2022/11/04 08:49:19;;;;;;;26.13;11.27;;;16.90;76.60;;;;;;6125905;23;20181;-76
2022/11/04 08:51:55;;;;;;;24.00;11.60;;;17.00;76.60;;;;;;6125761;23;20575;-79
2022/11/04 08:54:24;;;;;;;21.30;10.97;;;17.10;76.50;;;;;;6125140;23;20185;-78
2022/11/04 08:56:52;;;;;;;21.63;11.17;;;17.20;76.40;;;;;;6125982;23;20701;-77
2022/11/04 08:59:21;;;;;;;21.57;10.07;;;17.20;76.20;;;;;;6124228;23;20236;-77
2022/11/04 09:01:51;;;;;;;21.07;10.87;;;17.30;76.10;;;;;;6125326;23;20196;-78
2022/11/04 09:04:19;;;;;;;23.07;11.13;;;17.40;76.00;;;;;;6126019;23;20205;-77
2022/11/04 09:06:55;;;;;;;20.37;9.90;;;17.40;75.90;;;;;;6124562;23;20169;-75
2022/11/04 09:09:24;;;;;;;22.00;10.63;;;17.50;75.80;;;;;;6051692;23;20173;-76
2022/11/04 09:11:53;;;;;;;23.50;10.20;;;17.50;75.20;;;;;;6125107;23;20228;-78
2022/11/04 09:14:22;;;;;;;21.57;10.40;;;17.60;74.80;;;;;;6125594;23;20564;-78
2022/11/04 09:16:53;;;;;;;19.20;10.07;;;17.60;74.70;;;;;;6123221;23;20173;-77
2022/11/04 09:19:22;;;;;;;21.17;9.70;;;17.70;74.10;;;;;;6123412;23;20235;-76
2022/11/04 09:21:50;;;;;;;23.80;10.33;;;17.70;73.90;;;;;;6123467;23;20252;-77
2022/11/04 09:24:18;;;;;;;18.70;9.77;;;17.70;74.20;;;;;;6124033;23;20177;-76
2022/11/04 09:26:47;;;;;;;17.83;9.57;;;17.80;74.10;;;;;;6124392;23;20247;-77
2022/11/04 09:29:15;;;;;;;20.20;8.97;;;17.80;73.70;;;;;;6125475;23;20646;-78
2022/11/04 09:31:43;;;;;;;18.70;9.20;;;17.90;73.80;;;;;;6123347;23;20294;-77
2022/11/04 09:34:13;;;;;;;15.87;8.53;;;18.00;73.80;;;;;;6124857;23;20721;-76
2022/11/04 09:36:42;;;;;;;25.27;9.80;;;18.00;73.70;;;;;;6125055;23;20173;-78
2022/11/04 09:39:11;;;;;;;19.20;8.90;;;18.10;73.60;;;;;;6124953;23;20220;-77
2022/11/04 09:41:54;;;;;;;17.00;9.47;;;18.10;73.40;;;;;;6122891;23;20697;-77
2022/11/04 09:44:27;;;;;;;20.50;9.73;;;18.20;73.00;;;;;;6122432;23;20165;-76
2022/11/04 09:46:59;;;;;;;21.00;8.97;;;18.30;72.80;;;;;;6125135;23;20161;-77
2022/11/04 09:49:33;;;;;;;20.67;8.23;;;18.30;72.70;;;;;;6122627;23;20165;-77
2022/11/04 09:52:07;;;;;;;16.43;9.00;;;18.40;72.80;;;;;;6124424;23;20162;-78
2022/11/04 09:54:41;;;;;;;18.77;8.27;;;18.50;72.00;;;;;;6123045;23;20161;-76
2022/11/04 09:57:21;;;;;;;18.73;8.57;;;18.50;71.20;;;;;;6122131;23;20487;-80
2022/11/04 09:59:50;;;;;;;17.50;8.27;;;18.60;71.10;;;;;;6119420;23;20172;-79
2022/11/04 10:02:42;;;;;;;22.93;8.73;;;18.60;70.90;;;;;;6122270;23;20651;-78
2022/11/04 10:05:27;;;;;;;15.53;8.40;;;18.70;70.50;;;;;;6123614;23;20470;-79
2022/11/04 10:08:23;;;;;;;20.13;9.40;;;18.80;70.90;;;;;;6125294;23;20161;-78
2022/11/04 10:10:59;;;;;;;21.87;9.20;;;18.80;70.80;;;;;;6113588;23;20176;-79
2022/11/04 10:13:39;;;;;;;18.03;9.17;;;18.90;70.90;;;;;;6122622;23;20164;-78
2022/11/04 10:16:29;;;;;;;18.50;9.10;;;19.00;70.80;;;;;;6121921;23;20298;-80
2022/11/04 10:19:16;;;;;;;19.27;9.00;;;19.00;69.90;;;;;;6123664;23;20169;-79
2022/11/04 10:21:56;;;;;;;17.00;8.97;;;19.10;70.20;;;;;;6123720;23;20157;-79
2022/11/04 10:24:37;;;;;;;17.67;8.77;;;19.10;69.70;;;;;;6123130;23;21350;-79
2022/11/04 10:27:13;;;;;;;19.23;9.03;;;19.20;69.20;;;;;;6124168;23;20488;-79
2022/11/04 10:29:44;;;;;;;17.10;9.37;;;19.30;69.20;;;;;;6123692;23;20161;-80
2022/11/04 10:32:17;;;;;;;18.70;9.07;;;19.30;69.30;;;;;;6123797;23;20208;-79
2022/11/04 10:34:53;;;;;;;18.60;8.70;;;19.40;69.20;;;;;;6122673;23;20167;-80
2022/11/04 10:37:25;;;;;;;17.23;9.07;;;19.50;69.00;;;;;;6123616;23;20161;-79
2022/11/04 10:40:00;;;;;;;16.87;8.33;;;19.50;68.50;;;;;;6124460;23;20168;-79
2022/11/04 10:42:28;;;;;;;25.30;9.37;;;19.60;68.00;;;;;;6121338;23;20213;-78
2022/11/04 10:44:57;;;;;;;16.80;8.23;;;19.70;67.90;;;;;;6122415;23;20181;-79
2022/11/04 10:47:40;;;;;;;14.00;8.03;;;19.70;67.70;;;;;;6125146;23;20492;-79
2022/11/04 10:50:26;;;;;;;13.88;8.15;;;19.80;67.90;;;;;;6122567;23;20161;-81
2022/11/04 10:53:09;;;;;;;22.17;9.03;;;19.90;66.30;;;;;;6122462;23;20502;-80
2022/11/04 10:55:45;;;;;;;17.52;8.50;;;19.90;66.10;;;;;;6124007;23;20480;-80
2022/11/04 10:58:20;;;;;;;14.13;8.83;;;20.00;66.30;;;;;;6121172;23;20227;-80
2022/11/04 11:00:48;;;;;;;16.83;8.60;;;20.10;65.90;;;;;;6122505;23;20160;-80
2022/11/04 11:03:30;;;;;;;17.00;8.70;;;20.10;65.20;;;;;;6122414;23;20492;-79
2022/11/04 11:06:15;;;;;;;15.48;8.70;;;20.10;65.50;;;;;;6123137;23;20199;-78
2022/11/04 11:08:47;;;;;;;16.53;7.70;;;20.20;65.50;;;;;;6120616;23;20607;-79
2022/11/04 11:11:16;;;;;;;16.73;8.27;;;20.20;65.70;;;;;;6120437;23;20165;-79
2022/11/04 11:13:46;;;;;;;15.75;7.60;;;20.20;65.70;;;;;;6124155;23;20232;-79
2022/11/04 11:16:19;;;;;;;19.10;8.45;;;20.30;65.60;;;;;;6121129;23;20500;-80
2022/11/04 11:19:12;;;;;;;14.27;7.40;;;20.40;64.60;;;;;;6122791;23;20527;-79
2022/11/04 11:21:46;;;;;;;20.00;8.05;;;20.40;64.20;;;;;;6121843;23;20174;-80
2022/11/04 11:24:20;;;;;;;19.08;8.02;;;20.40;64.40;;;;;;6122619;23;20166;-79
2022/11/04 11:26:51;;;;;;;15.95;7.70;;;20.50;64.30;;;;;;6122942;23;20263;-78
2022/11/04 11:29:24;;;;;;;15.13;7.47;;;20.60;64.20;;;;;;6122581;23;20198;-78
2022/11/04 11:31:54;;;;;;;15.98;7.43;;;20.70;64.50;;;;;;6120615;23;20485;-79
2022/11/04 11:34:26;;;;;;;14.98;7.50;;;20.70;64.40;;;;;;6122117;23;20674;-79
2022/11/04 11:36:56;;;;;;;15.07;8.45;;;20.80;64.70;;;;;;6122751;23;20185;-79
2022/11/04 11:39:28;;;;;;;19.50;8.00;;;20.80;64.40;;;;;;6123308;23;20244;-79
2022/11/04 11:42:00;;;;;;;13.45;7.65;;;20.90;64.00;;;;;;6121027;23;20200;-79
2022/11/04 11:44:33;;;;;;;11.93;7.47;;;20.90;63.30;;;;;;6118774;23;20173;-79
2022/11/04 11:47:04;;;;;;;19.60;8.10;;;21.00;63.00;;;;;;6122506;23;20166;-79
2022/11/04 11:49:34;;;;;;;15.63;8.33;;;21.00;62.60;;;;;;6119802;23;20387;-80
2022/11/04 11:52:32;;;;;;;15.30;6.65;;;21.20;62.20;;;;;;6123724;23;20216;-79
2022/11/04 11:55:07;;;;;;;18.30;8.00;;;21.10;61.90;;;;;;6123940;23;20470;-79
2022/11/04 11:57:48;;;;;;;17.98;8.32;;;21.20;62.00;;;;;;6122947;23;20185;-79
2022/11/04 12:00:42;;;;;;;11.88;6.70;;;21.20;61.50;;;;;;6124055;23;20172;-78
2022/11/04 12:03:25;;;;;;;12.75;6.72;;;21.20;61.40;;;;;;6124714;23;20158;-79
2022/11/04 12:06:13;;;;;;;17.50;7.15;;;21.20;60.80;;;;;;6126588;23;20240;-78
2022/11/04 12:09:12;;;;;;;16.33;8.00;;;21.20;61.40;;;;;;6124805;23;20162;-78
2022/11/04 12:12:15;;;;;;;15.63;6.65;;;21.30;61.30;;;;;;6124175;23;20192;-80
2022/11/04 12:14:59;;;;;;;13.90;7.07;;;21.40;61.30;;;;;;6113398;23;20177;-78
2022/11/04 12:17:49;;;;;;;16.08;7.25;;;21.40;61.30;;;;;;6125656;23;20185;-79
2022/11/04 12:20:31;;;;;;;15.60;7.40;;;21.40;61.40;;;;;;6123437;23;20169;-78
2022/11/04 12:23:08;;;;;;;17.23;7.03;;;21.40;61.50;;;;;;6124551;23;20173;-78
2022/11/04 12:25:47;;;;;;;13.15;6.50;;;21.40;61.10;;;;;;6122633;23;20164;-81
2022/11/04 12:28:27;;;;;;;17.70;6.88;;;21.50;60.90;;;;;;6122730;23;20196;-79
2022/11/04 12:31:12;;;;;;;12.73;6.95;;;21.50;60.90;;;;;;6120896;23;20220;-79
2022/11/04 12:33:47;;;;;;;13.10;7.03;;;21.50;60.70;;;;;;6123377;23;20166;-80
2022/11/04 12:36:27;;;;;;;15.25;7.47;;;21.50;59.90;;;;;;6122599;23;20547;-79
2022/11/04 12:39:16;;;;;;;19.20;6.80;;;21.50;59.70;;;;;;6125179;23;20224;-79
2022/11/04 12:41:56;;;;;;;16.75;7.00;;;21.60;59.70;;;;;;6122633;23;20161;-78
2022/11/04 12:44:53;;;;;;;14.75;6.47;;;21.70;59.70;;;;;;6122744;23;20540;-79
2022/11/04 12:47:34;;;;;;;12.43;6.70;;;21.80;59.80;;;;;;6123601;23;20157;-78
2022/11/04 12:50:45;;;;;;;12.10;5.90;;;21.80;59.20;;;;;;6124079;23;20608;-79
2022/11/04 12:53:28;;;;;;;11.43;5.78;;;21.90;59.40;;;;;;5977673;24;20195;-79
2022/11/04 12:56:05;;;;;;;14.75;6.45;;;22.00;59.60;;;;;;6106462;23;20552;-77
2022/11/04 12:59:08;;;;;;;14.90;6.20;;;22.00;59.60;;;;;;6123410;23;20164;-82
2022/11/04 13:01:45;;;;;;;13.38;6.60;;;22.10;59.60;;;;;;6122932;23;20538;-79
2022/11/04 13:04:18;;;;;;;15.48;7.82;;;22.20;59.60;;;;;;6124947;23;20161;-79
2022/11/04 13:06:52;;;;;;;13.93;7.32;;;22.30;59.50;;;;;;6123720;23;20161;-79
2022/11/04 13:09:30;;;;;;;16.25;7.38;;;22.30;59.00;;;;;;6120104;23;20165;-78
2022/11/04 13:12:04;;;;;;;11.27;6.53;;;22.50;59.90;;;;;;6114302;23;20193;-78
2022/11/04 13:14:38;;;;;;;14.10;6.18;;;22.60;59.00;;;;;;6120434;23;20716;-79
2022/11/04 13:17:13;;;;;;;12.23;6.35;;;22.90;58.70;;;;;;6119799;23;20212;-80
2022/11/04 13:19:48;;;;;;;14.38;6.05;;;23.00;58.00;;;;;;6119447;23;20518;-78
2022/11/04 13:22:20;;;;;;;15.35;5.90;;;23.00;57.90;;;;;;6120826;23;20239;-78
2022/11/04 13:24:54;;;;;;;18.33;7.88;;;22.90;57.80;;;;;;6119430;23;20172;-78
2022/11/04 13:27:26;;;;;;;14.45;6.40;;;22.80;57.50;;;;;;6122135;23;20201;-79
2022/11/04 13:30:15;;;;;;;15.13;6.30;;;22.70;57.50;;;;;;6120695;23;20184;-79
2022/11/04 13:32:52;;;;;;;15.30;6.57;;;22.60;57.80;;;;;;6121404;23;20539;-78